Time;durP1;ratioP1;P1;durP2;ratioP2;P2;SDS_P1;SDS_P2;PMS_P1;PMS_P2;Temp;Humidity;BMP_temperature;BMP_pressure;BME280_temperature;BME280_humidity;BME280_pressure;Samples;Min_cycle;Max_cycle;Signal;HPM_P1;HPM_P2
2023/06/20 00:02:22;;;;;;;12.10;7.72;;;;;;;;;;4936841;28;20043;-83
2023/06/20 00:05:08;;;;;;;10.05;7.70;;;;;;;;;;4944814;28;20404;-84
2023/06/20 00:07:54;;;;;;;12.98;8.57;;;;;;;;;;4942233;28;20047;-83
2023/06/20 00:10:39;;;;;;;18.90;8.15;;;;;;;;;;4944912;28;20047;-85
2023/06/20 00:13:26;;;;;;;15.18;8.27;;;;;;;;;;4947639;29;20040;-83
2023/06/20 00:16:11;;;;;;;12.93;8.27;;;;;;;;;;4934836;29;20485;-84
2023/06/20 00:18:57;;;;;;;11.88;8.38;;;;;;;;;;4946940;29;20043;-83
2023/06/20 00:21:45;;;;;;;22.70;8.27;;;;;;;;;;4941316;28;20398;-83
2023/06/20 00:24:32;;;;;;;10.48;8.07;;;;;;;;;;4944310;28;20059;-84
2023/06/20 00:27:18;;;;;;;15.30;8.23;;;;;;;;;;4941962;28;20469;-83
2023/06/20 00:30:04;;;;;;;12.48;8.15;;;;;;;;;;4941722;28;20043;-83
2023/06/20 00:32:51;;;;;;;13.82;8.25;;;;;;;;;;4944441;28;20047;-83
2023/06/20 00:35:37;;;;;;;9.82;7.55;;;;;;;;;;4937671;29;20043;-83
2023/06/20 00:38:23;;;;;;;9.05;6.95;;;;;;;;;;4957752;28;20046;-83
2023/06/20 00:41:09;;;;;;;10.07;7.38;;;;;;;;;;4946124;29;20035;-84
2023/06/20 00:43:54;;;;;;;12.07;7.65;;;;;;;;;;4943799;29;20055;-83
2023/06/20 00:46:41;;;;;;;11.73;7.68;;;;;;;;;;4941002;28;20056;-83
2023/06/20 00:49:27;;;;;;;9.48;7.30;;;;;;;;;;4924372;28;20477;-84
2023/06/20 00:52:21;;;;;;;9.80;7.93;;;;;;;;;;4934079;29;20420;-84
2023/06/20 00:55:07;;;;;;;9.95;7.57;;;;;;;;;;4941060;28;20059;-83
2023/06/20 00:57:55;;;;;;;9.35;7.80;;;;;;;;;;4943503;28;20043;-85
2023/06/20 01:00:41;;;;;;;11.70;7.70;;;;;;;;;;4937563;29;20043;-83
2023/06/20 01:03:26;;;;;;;11.30;7.13;;;;;;;;;;4948429;29;20055;-82
2023/06/20 01:06:51;;;;;;;11.70;8.25;;;;;;;;;;4942107;29;20493;-82
2023/06/20 01:09:52;;;;;;;13.50;7.82;;;;;;;;;;4943364;29;20043;-82
2023/06/20 01:13:08;;;;;;;9.20;7.32;;;;;;;;;;4933587;29;20055;-82
2023/06/20 01:16:05;;;;;;;11.43;8.15;;;;;;;;;;4940347;29;20047;-83
2023/06/20 01:19:11;;;;;;;10.20;7.47;;;;;;;;;;4940170;29;20409;-83
2023/06/20 01:22:03;;;;;;;10.18;7.70;;;;;;;;;;4946199;29;20039;-83
2023/06/20 01:24:58;;;;;;;9.30;7.15;;;;;;;;;;4953963;29;20059;-83
2023/06/20 01:28:15;;;;;;;8.88;6.95;;;;;;;;;;4941045;29;20043;-83
2023/06/20 01:31:11;;;;;;;10.38;7.38;;;;;;;;;;4927630;28;20056;-83
2023/06/20 01:34:01;;;;;;;10.35;7.00;;;;;;;;;;4927550;29;20044;-83
2023/06/20 01:37:00;;;;;;;10.13;7.78;;;;;;;;;;4944800;28;20048;-83
2023/06/20 01:39:50;;;;;;;10.65;7.43;;;;;;;;;;4948506;28;20047;-83
2023/06/20 01:42:38;;;;;;;11.65;7.70;;;;;;;;;;4943002;29;20054;-83
2023/06/20 01:45:25;;;;;;;12.15;7.80;;;;;;;;;;4937245;29;20043;-84
2023/06/20 01:48:13;;;;;;;7.90;6.95;;;;;;;;;;4950742;29;20051;-83
2023/06/20 01:50:58;;;;;;;10.57;7.72;;;;;;;;;;4944625;28;20053;-83
2023/06/20 01:53:45;;;;;;;12.13;8.23;;;;;;;;;;4946807;28;20047;-83
2023/06/20 01:56:31;;;;;;;13.93;9.23;;;;;;;;;;4930443;28;20066;-83
2023/06/20 01:59:18;;;;;;;12.25;7.95;;;;;;;;;;4945723;28;20072;-83
2023/06/20 02:02:05;;;;;;;13.55;8.13;;;;;;;;;;4944948;28;20416;-83
2023/06/20 02:04:56;;;;;;;15.40;9.07;;;;;;;;;;4940517;29;20050;-83
2023/06/20 02:07:43;;;;;;;12.07;8.10;;;;;;;;;;4930295;28;20043;-83
2023/06/20 02:10:29;;;;;;;10.80;7.60;;;;;;;;;;4932855;28;20051;-83
2023/06/20 02:13:15;;;;;;;8.25;7.35;;;;;;;;;;4910565;28;20059;-83
2023/06/20 02:16:02;;;;;;;8.95;7.88;;;;;;;;;;4953406;29;20055;-83
2023/06/20 02:18:49;;;;;;;9.30;7.55;;;;;;;;;;4948413;29;20469;-83
2023/06/20 02:21:39;;;;;;;10.27;7.88;;;;;;;;;;4935506;28;20039;-83
2023/06/20 02:24:30;;;;;;;11.52;7.70;;;;;;;;;;4943084;28;20043;-83
2023/06/20 02:27:17;;;;;;;9.50;7.38;;;;;;;;;;4943901;28;20043;-83
2023/06/20 02:30:05;;;;;;;9.15;7.45;;;;;;;;;;4937457;29;20437;-83
2023/06/20 02:32:53;;;;;;;9.57;7.70;;;;;;;;;;4949319;29;20484;-83
2023/06/20 02:35:41;;;;;;;9.93;8.00;;;;;;;;;;4946076;28;20039;-83
2023/06/20 02:38:27;;;;;;;9.65;7.40;;;;;;;;;;4944005;28;20039;-84
2023/06/20 02:41:12;;;;;;;11.65;8.07;;;;;;;;;;4937834;29;20043;-84
2023/06/20 02:43:58;;;;;;;10.45;7.30;;;;;;;;;;4941463;28;20055;-84
2023/06/20 02:46:50;;;;;;;9.52;7.55;;;;;;;;;;4927974;28;20048;-84
2023/06/20 02:49:58;;;;;;;10.15;7.75;;;;;;;;;;4944475;28;20500;-83
2023/06/20 02:52:48;;;;;;;9.63;7.25;;;;;;;;;;4937473;29;20043;-84
2023/06/20 02:55:52;;;;;;;9.02;7.00;;;;;;;;;;4944881;28;20051;-83
2023/06/20 02:58:46;;;;;;;12.77;8.27;;;;;;;;;;4934136;28;20043;-86
2023/06/20 03:01:33;;;;;;;9.10;7.50;;;;;;;;;;4943428;28;20047;-86
2023/06/20 03:04:20;;;;;;;12.52;7.78;;;;;;;;;;4942955;28;20051;-86
2023/06/20 03:07:07;;;;;;;10.93;8.07;;;;;;;;;;4943336;28;20051;-85
2023/06/20 03:09:55;;;;;;;9.55;8.18;;;;;;;;;;4941824;28;20055;-85
2023/06/20 03:12:40;;;;;;;9.40;7.90;;;;;;;;;;4939999;28;20052;-85
2023/06/20 03:15:27;;;;;;;10.65;7.85;;;;;;;;;;4942484;28;20051;-86
2023/06/20 03:18:14;;;;;;;9.80;7.40;;;;;;;;;;4948863;29;20062;-83
2023/06/20 03:21:02;;;;;;;15.50;8.38;;;;;;;;;;4942167;28;20059;-83
2023/06/20 03:23:48;;;;;;;9.32;7.90;;;;;;;;;;4942473;28;20048;-84
2023/06/20 03:26:36;;;;;;;9.95;7.35;;;;;;;;;;4950805;29;20043;-83
2023/06/20 03:29:21;;;;;;;10.05;7.38;;;;;;;;;;4942659;28;20477;-83
2023/06/20 03:32:07;;;;;;;13.80;7.80;;;;;;;;;;4937207;29;20043;-83
2023/06/20 03:34:53;;;;;;;10.50;7.90;;;;;;;;;;4945643;28;20043;-84
2023/06/20 03:37:39;;;;;;;11.18;8.48;;;;;;;;;;4941869;28;20847;-83
2023/06/20 03:40:25;;;;;;;12.32;7.15;;;;;;;;;;4945233;28;20051;-84
2023/06/20 03:43:10;;;;;;;10.20;7.20;;;;;;;;;;4932714;28;20051;-83
2023/06/20 03:45:56;;;;;;;9.32;7.32;;;;;;;;;;4941718;28;20480;-83
2023/06/20 03:48:42;;;;;;;11.07;7.53;;;;;;;;;;4915565;28;20043;-83
2023/06/20 03:51:28;;;;;;;9.77;7.65;;;;;;;;;;4942840;28;20043;-84
2023/06/20 03:54:14;;;;;;;9.20;6.93;;;;;;;;;;4931753;28;20480;-84
2023/06/20 03:57:03;;;;;;;11.45;7.25;;;;;;;;;;4943176;28;20480;-84
2023/06/20 03:59:50;;;;;;;16.40;7.45;;;;;;;;;;4949005;28;20051;-84
2023/06/20 04:02:36;;;;;;;17.25;7.97;;;;;;;;;;4939131;28;20042;-84
2023/06/20 04:05:22;;;;;;;15.73;8.27;;;;;;;;;;4941852;28;20043;-84
2023/06/20 04:08:08;;;;;;;10.43;7.03;;;;;;;;;;4944325;29;20044;-83
2023/06/20 04:10:55;;;;;;;10.90;7.60;;;;;;;;;;4943901;29;20047;-84
2023/06/20 04:13:41;;;;;;;11.27;7.47;;;;;;;;;;4945615;29;20052;-86
2023/06/20 04:16:26;;;;;;;15.30;7.38;;;;;;;;;;4949244;29;20047;-84
2023/06/20 04:19:12;;;;;;;10.60;7.05;;;;;;;;;;4945126;28;20047;-84
2023/06/20 04:21:58;;;;;;;12.98;6.97;;;;;;;;;;4945275;28;20055;-84
2023/06/20 04:24:43;;;;;;;10.10;6.95;;;;;;;;;;4945368;28;20472;-85
2023/06/20 04:27:30;;;;;;;16.20;6.88;;;;;;;;;;4925799;28;20054;-85
2023/06/20 04:30:16;;;;;;;11.68;7.20;;;;;;;;;;4932029;28;20043;-85
2023/06/20 04:33:04;;;;;;;11.55;7.75;;;;;;;;;;4944432;28;20043;-85
2023/06/20 04:35:50;;;;;;;17.95;7.75;;;;;;;;;;4944304;28;20043;-85
2023/06/20 04:38:37;;;;;;;14.57;7.70;;;;;;;;;;4945087;28;20492;-85
2023/06/20 04:41:23;;;;;;;11.23;7.38;;;;;;;;;;4942901;28;20488;-85
2023/06/20 04:44:10;;;;;;;12.32;7.65;;;;;;;;;;4917389;29;20056;-85
2023/06/20 04:46:55;;;;;;;14.27;7.70;;;;;;;;;;4941328;28;20050;-85
2023/06/20 04:49:43;;;;;;;13.02;8.05;;;;;;;;;;4927972;28;20043;-85
2023/06/20 04:52:28;;;;;;;13.82;7.28;;;;;;;;;;4928061;29;20059;-85
2023/06/20 04:55:13;;;;;;;11.25;6.93;;;;;;;;;;4941582;28;20039;-85
2023/06/20 04:57:59;;;;;;;17.83;7.53;;;;;;;;;;4931086;28;20039;-85
2023/06/20 05:00:45;;;;;;;14.88;7.10;;;;;;;;;;4946426;29;20051;-84
2023/06/20 05:03:31;;;;;;;9.32;6.20;;;;;;;;;;4943583;29;20051;-85
2023/06/20 05:06:17;;;;;;;11.27;6.97;;;;;;;;;;4927951;29;20048;-85
2023/06/20 05:09:03;;;;;;;12.98;6.70;;;;;;;;;;4940815;29;20051;-84
2023/06/20 05:11:49;;;;;;;12.35;7.03;;;;;;;;;;4944004;28;20051;-84
2023/06/20 05:14:34;;;;;;;15.85;6.68;;;;;;;;;;4950099;29;20048;-84
2023/06/20 05:17:19;;;;;;;10.00;6.78;;;;;;;;;;4946223;29;20047;-84
2023/06/20 05:20:06;;;;;;;12.13;6.50;;;;;;;;;;4951713;29;20440;-84
2023/06/20 05:22:51;;;;;;;11.57;6.80;;;;;;;;;;4950988;29;20047;-84
2023/06/20 05:25:37;;;;;;;13.27;6.72;;;;;;;;;;4944978;28;20055;-85
2023/06/20 05:28:23;;;;;;;14.15;6.18;;;;;;;;;;4946516;29;20039;-85
2023/06/20 05:31:11;;;;;;;9.93;6.70;;;;;;;;;;4949858;29;20404;-86
2023/06/20 05:33:56;;;;;;;11.23;6.88;;;;;;;;;;4938223;29;20039;-86
2023/06/20 05:36:42;;;;;;;12.88;7.13;;;;;;;;;;4936826;29;20051;-86
2023/06/20 05:39:28;;;;;;;10.40;6.95;;;;;;;;;;4945070;28;20047;-85
2023/06/20 05:42:13;;;;;;;8.70;6.53;;;;;;;;;;4931849;28;20048;-86
2023/06/20 05:44:58;;;;;;;8.90;6.50;;;;;;;;;;4938541;29;20048;-85
2023/06/20 05:47:46;;;;;;;12.00;6.80;;;;;;;;;;4947284;29;20044;-86
2023/06/20 05:51:00;;;;;;;10.80;6.93;;;;;;;;;;4949136;29;20055;-87
2023/06/20 05:53:44;;;;;;;11.55;6.97;;;;;;;;;;4956264;28;20039;-85
2023/06/20 05:56:29;;;;;;;9.25;6.25;;;;;;;;;;4944045;28;20058;-85
2023/06/20 05:59:15;;;;;;;11.48;6.90;;;;;;;;;;4932049;28;20043;-85
2023/06/20 06:02:01;;;;;;;11.00;5.72;;;;;;;;;;4952926;29;20051;-85
2023/06/20 06:04:48;;;;;;;11.13;6.03;;;;;;;;;;4940845;29;20051;-85
2023/06/20 06:07:34;;;;;;;8.98;5.68;;;;;;;;;;4943081;28;20047;-85
2023/06/20 06:10:19;;;;;;;8.98;5.80;;;;;;;;;;4937693;29;20050;-85
2023/06/20 06:13:04;;;;;;;11.55;6.38;;;;;;;;;;4937541;29;20048;-84
2023/06/20 06:15:49;;;;;;;7.47;5.60;;;;;;;;;;4928359;28;20481;-84
2023/06/20 06:18:38;;;;;;;10.88;5.55;;;;;;;;;;4944545;28;20039;-85
2023/06/20 06:21:24;;;;;;;9.38;6.50;;;;;;;;;;4942323;28;20043;-84
2023/06/20 06:24:09;;;;;;;10.50;5.93;;;;;;;;;;4934736;29;20039;-86
2023/06/20 06:26:55;;;;;;;12.15;5.72;;;;;;;;;;4942976;28;20044;-85
2023/06/20 06:29:40;;;;;;;12.13;5.93;;;;;;;;;;4943628;28;20055;-86
2023/06/20 06:32:27;;;;;;;10.70;5.95;;;;;;;;;;4929313;28;20059;-86
2023/06/20 06:35:12;;;;;;;7.38;5.65;;;;;;;;;;4938529;29;20039;-86
2023/06/20 06:37:58;;;;;;;7.55;5.40;;;;;;;;;;4949924;29;20047;-86
2023/06/20 06:40:46;;;;;;;8.45;5.90;;;;;;;;;;4949767;29;20032;-86
2023/06/20 06:43:31;;;;;;;11.82;5.63;;;;;;;;;;4946408;28;20043;-87
2023/06/20 06:46:17;;;;;;;7.88;5.25;;;;;;;;;;4943907;28;21866;-86
2023/06/20 06:49:03;;;;;;;7.22;5.50;;;;;;;;;;4930841;28;20055;-87
2023/06/20 06:51:49;;;;;;;10.55;5.85;;;;;;;;;;4950739;29;20047;-87
2023/06/20 06:54:34;;;;;;;7.47;5.40;;;;;;;;;;4939315;29;20055;-86
2023/06/20 06:57:19;;;;;;;9.73;5.78;;;;;;;;;;4946497;28;20054;-86
2023/06/20 07:00:09;;;;;;;7.70;5.70;;;;;;;;;;4932741;28;20039;-85
2023/06/20 07:02:55;;;;;;;7.82;5.28;;;;;;;;;;4943690;28;20051;-86
2023/06/20 07:05:41;;;;;;;11.10;5.63;;;;;;;;;;4939964;29;20055;-86
2023/06/20 07:08:26;;;;;;;7.30;5.22;;;;;;;;;;4947801;29;20516;-87
2023/06/20 07:11:12;;;;;;;7.75;5.65;;;;;;;;;;4943043;28;20058;-86
2023/06/20 07:13:58;;;;;;;10.63;6.20;;;;;;;;;;4937023;29;20035;-87
2023/06/20 07:16:43;;;;;;;6.90;5.68;;;;;;;;;;4946006;28;20492;-87
2023/06/20 07:19:31;;;;;;;9.02;5.78;;;;;;;;;;4914898;28;20051;-86
2023/06/20 07:22:16;;;;;;;7.68;5.38;;;;;;;;;;4953382;29;20055;-85
2023/06/20 07:25:02;;;;;;;9.60;5.57;;;;;;;;;;4945727;29;20047;-84
2023/06/20 07:27:48;;;;;;;8.35;5.78;;;;;;;;;;4939111;29;20047;-85
2023/06/20 07:30:33;;;;;;;6.03;4.90;;;;;;;;;;4936922;29;20048;-84
2023/06/20 07:33:19;;;;;;;7.55;5.57;;;;;;;;;;4943585;28;20039;-85
2023/06/20 07:36:07;;;;;;;8.18;5.47;;;;;;;;;;4942419;28;20043;-84
2023/06/20 07:38:53;;;;;;;8.82;5.80;;;;;;;;;;4951575;29;20039;-84
2023/06/20 07:41:38;;;;;;;11.05;7.07;;;;;;;;;;4928429;29;20432;-85
2023/06/20 07:44:24;;;;;;;11.07;5.93;;;;;;;;;;4944195;29;20043;-85
2023/06/20 07:47:10;;;;;;;7.70;5.47;;;;;;;;;;4947950;29;20477;-84
2023/06/20 07:49:55;;;;;;;10.70;5.97;;;;;;;;;;4948885;29;20035;-85
2023/06/20 07:52:41;;;;;;;6.15;5.50;;;;;;;;;;4947885;29;20056;-83
2023/06/20 07:55:26;;;;;;;7.85;5.68;;;;;;;;;;4946999;28;20039;-84
2023/06/20 07:58:12;;;;;;;7.95;5.00;;;;;;;;;;4957065;29;20051;-85
2023/06/20 08:00:58;;;;;;;7.30;5.63;;;;;;;;;;4941390;29;20411;-85
2023/06/20 08:03:43;;;;;;;10.57;5.85;;;;;;;;;;4942204;29;20047;-83
2023/06/20 08:06:29;;;;;;;7.70;5.50;;;;;;;;;;4956618;29;20039;-84
2023/06/20 08:09:14;;;;;;;8.38;5.72;;;;;;;;;;4956542;29;20055;-82
2023/06/20 08:12:00;;;;;;;10.82;6.00;;;;;;;;;;4956784;29;20492;-83
2023/06/20 08:14:45;;;;;;;11.65;6.53;;;;;;;;;;4937459;28;20047;-85
2023/06/20 08:17:32;;;;;;;10.95;6.65;;;;;;;;;;4957666;29;20043;-85
2023/06/20 08:20:17;;;;;;;12.57;6.60;;;;;;;;;;4956971;29;20046;-85
2023/06/20 08:23:02;;;;;;;13.60;6.78;;;;;;;;;;4956424;29;20055;-85
2023/06/20 08:25:48;;;;;;;15.60;6.90;;;;;;;;;;4956049;29;20055;-84
2023/06/20 08:28:33;;;;;;;11.95;6.47;;;;;;;;;;4948097;28;20043;-84
2023/06/20 08:31:18;;;;;;;10.13;6.30;;;;;;;;;;4956088;29;20047;-84
2023/06/20 08:34:04;;;;;;;10.43;6.93;;;;;;;;;;4956897;29;20051;-83
2023/06/20 08:36:50;;;;;;;13.55;7.00;;;;;;;;;;4956447;29;20485;-81
2023/06/20 08:39:36;;;;;;;9.82;6.80;;;;;;;;;;4955687;29;20043;-82
2023/06/20 08:42:21;;;;;;;13.82;7.28;;;;;;;;;;4956085;29;20054;-82
2023/06/20 08:45:08;;;;;;;10.25;7.05;;;;;;;;;;4958101;28;20055;-82
2023/06/20 08:47:58;;;;;;;13.68;6.40;;;;;;;;;;4962992;29;20405;-82
2023/06/20 08:50:47;;;;;;;8.23;6.45;;;;;;;;;;4962315;29;20472;-81
2023/06/20 08:53:33;;;;;;;8.27;5.93;;;;;;;;;;4948047;29;20051;-84
2023/06/20 08:56:20;;;;;;;6.88;6.05;;;;;;;;;;4962791;29;20039;-81
2023/06/20 08:59:05;;;;;;;10.50;6.07;;;;;;;;;;4961621;29;20043;-82
2023/06/20 09:01:50;;;;;;;8.80;5.90;;;;;;;;;;4961967;29;20048;-83
2023/06/20 09:04:36;;;;;;;9.82;5.75;;;;;;;;;;4954610;29;20051;-83
2023/06/20 09:07:22;;;;;;;14.38;8.18;;;;;;;;;;4955580;29;20044;-82
2023/06/20 09:10:11;;;;;;;9.98;5.90;;;;;;;;;;4955725;29;20043;-84
2023/06/20 09:12:59;;;;;;;9.35;6.15;;;;;;;;;;4955622;29;20039;-83
2023/06/20 09:15:46;;;;;;;8.80;6.30;;;;;;;;;;4955562;29;20051;-82
2023/06/20 09:18:34;;;;;;;14.13;6.65;;;;;;;;;;4947517;29;20055;-84
2023/06/20 09:21:20;;;;;;;7.15;5.97;;;;;;;;;;4947531;29;20043;-85
2023/06/20 09:24:06;;;;;;;8.02;6.30;;;;;;;;;;4934378;29;20047;-82
2023/06/20 09:26:52;;;;;;;8.27;5.82;;;;;;;;;;4955489;29;20042;-84
2023/06/20 09:29:51;;;;;;;9.63;6.18;;;;;;;;;;4941426;29;20488;-82
2023/06/20 09:32:40;;;;;;;11.07;6.22;;;;;;;;;;4934650;28;20051;-83
2023/06/20 09:35:25;;;;;;;9.90;6.10;;;;;;;;;;4933601;29;20055;-84
2023/06/20 09:38:13;;;;;;;7.63;5.85;;;;;;;;;;4934513;28;20051;-84
2023/06/20 09:40:59;;;;;;;10.27;6.10;;;;;;;;;;4934670;28;20047;-85
2023/06/20 09:43:46;;;;;;;10.60;5.93;;;;;;;;;;4937144;29;20051;-84
2023/06/20 09:46:31;;;;;;;7.03;5.50;;;;;;;;;;4935733;29;20047;-84
2023/06/20 09:49:17;;;;;;;9.30;5.63;;;;;;;;;;4934876;29;20051;-84
2023/06/20 09:52:13;;;;;;;9.70;6.30;;;;;;;;;;4932413;29;20047;-85
2023/06/20 09:55:00;;;;;;;8.80;6.03;;;;;;;;;;4933461;29;20043;-85
2023/06/20 09:57:57;;;;;;;10.75;6.53;;;;;;;;;;4937041;28;20047;-86
2023/06/20 10:00:43;;;;;;;11.60;5.65;;;;;;;;;;4937731;28;20392;-84
2023/06/20 10:03:29;;;;;;;9.07;5.80;;;;;;;;;;4937623;28;20051;-87
2023/06/20 10:06:15;;;;;;;8.85;6.13;;;;;;;;;;4937570;28;20055;-84
2023/06/20 10:09:01;;;;;;;8.43;5.68;;;;;;;;;;4937240;28;20412;-85
2023/06/20 10:11:47;;;;;;;11.13;5.75;;;;;;;;;;4964971;28;20388;-84
2023/06/20 10:14:33;;;;;;;11.05;6.00;;;;;;;;;;4936543;28;20051;-86
2023/06/20 10:17:30;;;;;;;8.27;5.72;;;;;;;;;;4936808;28;20059;-86
2023/06/20 10:20:37;;;;;;;6.45;5.60;;;;;;;;;;4937526;28;20055;-85
2023/06/20 10:23:31;;;;;;;7.40;5.47;;;;;;;;;;4964774;28;20051;-86
2023/06/20 10:26:21;;;;;;;6.53;5.13;;;;;;;;;;4937456;28;20055;-85
2023/06/20 10:29:07;;;;;;;7.72;5.05;;;;;;;;;;4937710;28;20054;-86
2023/06/20 10:32:06;;;;;;;10.25;5.40;;;;;;;;;;4936574;28;20055;-85
2023/06/20 10:34:52;;;;;;;8.88;5.63;;;;;;;;;;4937177;28;20055;-85
2023/06/20 10:37:38;;;;;;;8.07;5.43;;;;;;;;;;4943881;29;20051;-85
2023/06/20 10:40:29;;;;;;;7.25;5.50;;;;;;;;;;4937516;28;20473;-87
2023/06/20 10:43:22;;;;;;;11.45;5.57;;;;;;;;;;4950375;28;20051;-86
2023/06/20 10:46:08;;;;;;;7.30;5.43;;;;;;;;;;4957667;29;20401;-87
2023/06/20 10:48:53;;;;;;;6.00;5.10;;;;;;;;;;4937114;28;20484;-85
2023/06/20 10:51:53;;;;;;;8.60;5.00;;;;;;;;;;4935611;28;20051;-84
2023/06/20 10:54:39;;;;;;;7.60;4.72;;;;;;;;;;4936554;28;20473;-84
2023/06/20 10:57:24;;;;;;;12.77;6.72;;;;;;;;;;4936694;28;20043;-86
2023/06/20 11:00:19;;;;;;;8.52;5.35;;;;;;;;;;4936868;28;20055;-85
2023/06/20 11:03:04;;;;;;;14.18;6.65;;;;;;;;;;4936563;28;20055;-87
2023/06/20 11:05:56;;;;;;;8.90;5.68;;;;;;;;;;4949534;28;20059;-86
2023/06/20 11:08:47;;;;;;;11.57;6.70;;;;;;;;;;4949289;28;20047;-86
2023/06/20 11:11:37;;;;;;;9.65;5.25;;;;;;;;;;4943436;29;20424;-86
2023/06/20 11:14:23;;;;;;;7.05;5.18;;;;;;;;;;4957539;29;20488;-85
2023/06/20 11:17:08;;;;;;;6.30;5.13;;;;;;;;;;4949282;28;20043;-86
2023/06/20 11:19:54;;;;;;;6.40;5.10;;;;;;;;;;4936267;28;20051;-84
2023/06/20 11:22:39;;;;;;;6.18;4.85;;;;;;;;;;4943502;29;20039;-85
2023/06/20 11:25:33;;;;;;;9.82;5.35;;;;;;;;;;4937409;28;20051;-85
2023/06/20 11:28:19;;;;;;;7.10;5.38;;;;;;;;;;4936461;28;20047;-87
2023/06/20 11:31:10;;;;;;;8.60;4.63;;;;;;;;;;4957577;29;20473;-85
2023/06/20 11:34:06;;;;;;;8.95;5.43;;;;;;;;;;4942818;29;20043;-84
2023/06/20 11:36:51;;;;;;;8.98;5.72;;;;;;;;;;4957469;29;20416;-87
2023/06/20 11:39:39;;;;;;;8.68;5.30;;;;;;;;;;4936157;28;20051;-87
2023/06/20 11:42:24;;;;;;;7.57;5.40;;;;;;;;;;4935319;28;20076;-87
2023/06/20 11:45:11;;;;;;;7.25;5.40;;;;;;;;;;4957716;29;20380;-85
2023/06/20 11:48:13;;;;;;;7.93;5.57;;;;;;;;;;4936288;28;20051;-84
2023/06/20 11:51:05;;;;;;;14.75;6.20;;;;;;;;;;4936394;28;20047;-86
2023/06/20 11:54:08;;;;;;;9.73;5.75;;;;;;;;;;4957791;29;20476;-85
2023/06/20 11:56:54;;;;;;;7.57;5.07;;;;;;;;;;4958891;29;20044;-86
2023/06/20 11:59:39;;;;;;;17.10;6.30;;;;;;;;;;4939275;28;20051;-88
2023/06/20 12:02:25;;;;;;;6.30;5.20;;;;;;;;;;4951159;28;20055;-88
2023/06/20 12:05:15;;;;;;;6.88;5.45;;;;;;;;;;4959539;29;20047;-88
2023/06/20 12:08:00;;;;;;;7.88;5.55;;;;;;;;;;4937221;28;20051;-86
2023/06/20 12:10:47;;;;;;;8.73;5.18;;;;;;;;;;4943903;29;20051;-86
2023/06/20 12:13:33;;;;;;;8.35;5.63;;;;;;;;;;4961074;29;20043;-87
2023/06/20 12:16:20;;;;;;;12.88;5.55;;;;;;;;;;4936102;28;20051;-86
2023/06/20 12:19:05;;;;;;;7.72;5.25;;;;;;;;;;4942783;28;20035;-85
2023/06/20 12:21:51;;;;;;;6.75;5.18;;;;;;;;;;4937104;28;20055;-88
2023/06/20 12:24:36;;;;;;;12.32;6.03;;;;;;;;;;4950751;28;20051;-87
2023/06/20 12:27:21;;;;;;;7.00;5.15;;;;;;;;;;4936295;28;20059;-86
2023/06/20 12:30:08;;;;;;;7.85;6.53;;;;;;;;;;4935968;28;20047;-87
2023/06/20 12:32:55;;;;;;;9.05;5.50;;;;;;;;;;4936032;28;20051;-88
2023/06/20 12:35:41;;;;;;;6.90;5.07;;;;;;;;;;4942678;29;20047;-88
2023/06/20 12:38:26;;;;;;;7.03;5.90;;;;;;;;;;4934730;28;20047;-87
2023/06/20 12:41:11;;;;;;;7.13;5.57;;;;;;;;;;4941964;28;20489;-86
2023/06/20 12:43:57;;;;;;;8.70;5.68;;;;;;;;;;4930811;28;20043;-85
2023/06/20 12:46:43;;;;;;;6.80;5.45;;;;;;;;;;4942195;28;20055;-86
2023/06/20 12:49:28;;;;;;;8.68;5.57;;;;;;;;;;4942023;28;20048;-86
2023/06/20 12:52:14;;;;;;;8.05;5.70;;;;;;;;;;4926497;29;20051;-86
2023/06/20 12:55:00;;;;;;;7.60;5.45;;;;;;;;;;4927878;28;20433;-86
2023/06/20 12:57:46;;;;;;;10.10;5.40;;;;;;;;;;4934796;29;20043;-86
2023/06/20 13:00:33;;;;;;;6.63;5.90;;;;;;;;;;4932386;28;20489;-85
2023/06/20 13:03:19;;;;;;;10.15;5.28;;;;;;;;;;4944277;29;20096;-86
2023/06/20 13:06:05;;;;;;;8.30;5.80;;;;;;;;;;4933742;29;20052;-86
2023/06/20 13:08:52;;;;;;;10.32;5.55;;;;;;;;;;4944681;29;20087;-86
2023/06/20 13:11:38;;;;;;;8.38;5.90;;;;;;;;;;4927289;29;20047;-86
2023/06/20 13:14:23;;;;;;;9.18;5.70;;;;;;;;;;4929541;29;20043;-85
2023/06/20 13:17:09;;;;;;;7.78;5.70;;;;;;;;;;4934142;29;20405;-85
2023/06/20 13:19:55;;;;;;;13.18;6.20;;;;;;;;;;4927279;29;20044;-85
2023/06/20 13:22:42;;;;;;;10.00;6.35;;;;;;;;;;4927884;29;20044;-85
2023/06/20 13:25:27;;;;;;;7.20;5.88;;;;;;;;;;4935628;29;20047;-85
2023/06/20 13:28:13;;;;;;;9.05;5.65;;;;;;;;;;4934766;29;20154;-85
2023/06/20 13:30:58;;;;;;;9.75;5.88;;;;;;;;;;4934460;29;20493;-86
2023/06/20 13:33:43;;;;;;;12.05;6.45;;;;;;;;;;4937820;29;20043;-86
2023/06/20 13:36:30;;;;;;;11.80;5.97;;;;;;;;;;4934112;28;20047;-86
2023/06/20 13:39:16;;;;;;;10.20;6.25;;;;;;;;;;4931258;28;20043;-86
2023/06/20 13:42:02;;;;;;;11.50;6.30;;;;;;;;;;4954505;29;20031;-87
2023/06/20 13:44:47;;;;;;;8.20;6.35;;;;;;;;;;4931711;28;20051;-86
2023/06/20 13:47:33;;;;;;;8.48;6.05;;;;;;;;;;4934047;28;20058;-86
2023/06/20 13:50:18;;;;;;;8.55;5.72;;;;;;;;;;4939570;29;20036;-85
2023/06/20 13:53:04;;;;;;;10.30;6.22;;;;;;;;;;4938936;29;20054;-85
2023/06/20 13:55:52;;;;;;;9.77;6.28;;;;;;;;;;4924086;29;20540;-85
2023/06/20 13:58:38;;;;;;;7.40;6.10;;;;;;;;;;4929142;28;20615;-86
2023/06/20 14:01:23;;;;;;;7.07;5.75;;;;;;;;;;4943429;28;20047;-86
2023/06/20 14:04:09;;;;;;;10.23;6.10;;;;;;;;;;4938863;29;20047;-87
2023/06/20 14:06:55;;;;;;;7.97;6.38;;;;;;;;;;4929956;28;20063;-85
2023/06/20 14:09:40;;;;;;;7.43;6.60;;;;;;;;;;4943473;28;20044;-85
2023/06/20 14:12:26;;;;;;;10.55;6.20;;;;;;;;;;4951620;29;20039;-85
2023/06/20 14:15:12;;;;;;;8.02;6.40;;;;;;;;;;4943519;28;20063;-86
2023/06/20 14:17:58;;;;;;;9.65;6.22;;;;;;;;;;4929189;28;20039;-86
2023/06/20 14:20:44;;;;;;;10.63;6.57;;;;;;;;;;4929025;28;20043;-86
2023/06/20 14:23:29;;;;;;;7.65;6.25;;;;;;;;;;4932782;28;20047;-85
2023/06/20 14:26:18;;;;;;;8.02;5.95;;;;;;;;;;4929104;28;20051;-85
2023/06/20 14:29:04;;;;;;;8.38;6.25;;;;;;;;;;4917874;28;20473;-85
2023/06/20 14:31:49;;;;;;;11.07;6.70;;;;;;;;;;4945628;28;20051;-86
2023/06/20 14:34:34;;;;;;;13.63;6.88;;;;;;;;;;4929940;28;20039;-86
2023/06/20 14:37:20;;;;;;;10.43;6.53;;;;;;;;;;4921646;28;20040;-88
2023/06/20 14:40:06;;;;;;;11.15;6.07;;;;;;;;;;4930359;28;20039;-87
2023/06/20 14:42:52;;;;;;;9.73;6.05;;;;;;;;;;4935571;29;20476;-87
2023/06/20 14:45:37;;;;;;;9.98;6.40;;;;;;;;;;4931169;28;20055;-86
2023/06/20 14:48:26;;;;;;;11.23;6.45;;;;;;;;;;4926842;28;20055;-87
2023/06/20 14:51:11;;;;;;;11.93;6.50;;;;;;;;;;4945540;29;20043;-86
2023/06/20 14:53:56;;;;;;;12.27;5.93;;;;;;;;;;4929000;28;20047;-85
2023/06/20 14:56:42;;;;;;;13.02;6.07;;;;;;;;;;4917965;28;20428;-85
2023/06/20 14:59:28;;;;;;;9.63;6.13;;;;;;;;;;4951106;29;20481;-85
2023/06/20 15:02:13;;;;;;;7.55;6.30;;;;;;;;;;4954052;29;20047;-86
2023/06/20 15:04:59;;;;;;;9.88;6.25;;;;;;;;;;4929794;28;20047;-85
2023/06/20 15:07:45;;;;;;;7.80;5.95;;;;;;;;;;4943804;28;20039;-86
2023/06/20 15:10:30;;;;;;;7.72;5.90;;;;;;;;;;4932299;28;20059;-87
2023/06/20 15:13:16;;;;;;;8.82;6.30;;;;;;;;;;4931097;28;20055;-86
2023/06/20 15:16:01;;;;;;;7.25;6.50;;;;;;;;;;4928255;28;20055;-86
2023/06/20 15:18:47;;;;;;;10.20;6.50;;;;;;;;;;4936366;29;20043;-85
2023/06/20 15:21:33;;;;;;;11.50;5.85;;;;;;;;;;4935550;29;20051;-85
2023/06/20 15:24:18;;;;;;;7.20;5.65;;;;;;;;;;4944504;29;20043;-85
2023/06/20 15:27:05;;;;;;;10.15;6.30;;;;;;;;;;4942990;28;20066;-86
2023/06/20 15:29:50;;;;;;;8.93;5.78;;;;;;;;;;4945924;29;20047;-86
2023/06/20 15:32:37;;;;;;;7.40;5.70;;;;;;;;;;4941939;28;20055;-84
2023/06/20 15:35:22;;;;;;;6.72;5.93;;;;;;;;;;4928315;28;20047;-86
2023/06/20 15:38:08;;;;;;;12.32;5.63;;;;;;;;;;4943313;28;20404;-86
2023/06/20 15:40:54;;;;;;;13.85;6.13;;;;;;;;;;4952812;29;20036;-86
2023/06/20 15:43:41;;;;;;;12.52;6.18;;;;;;;;;;4947124;28;20043;-85
2023/06/20 15:46:26;;;;;;;8.25;6.68;;;;;;;;;;4952991;29;20066;-84
2023/06/20 15:49:11;;;;;;;8.52;6.38;;;;;;;;;;4932936;28;20050;-87
2023/06/20 15:51:57;;;;;;;10.73;6.72;;;;;;;;;;4928386;29;20055;-84
2023/06/20 15:54:42;;;;;;;9.73;6.55;;;;;;;;;;4931856;28;20044;-84
2023/06/20 15:57:27;;;;;;;9.63;6.72;;;;;;;;;;4951089;29;20043;-85
2023/06/20 16:00:14;;;;;;;9.52;7.18;;;;;;;;;;4936380;29;20051;-86
2023/06/20 16:03:00;;;;;;;12.07;6.55;;;;;;;;;;4948866;29;20047;-85
2023/06/20 16:05:45;;;;;;;7.30;6.38;;;;;;;;;;4954741;29;20047;-85
2023/06/20 16:08:31;;;;;;;9.43;6.63;;;;;;;;;;4943817;29;20392;-85
2023/06/20 16:11:17;;;;;;;8.20;6.75;;;;;;;;;;4930182;28;20043;-85
2023/06/20 16:14:04;;;;;;;8.35;7.10;;;;;;;;;;4944189;29;20047;-85
2023/06/20 16:16:49;;;;;;;10.57;6.75;;;;;;;;;;4943078;29;20043;-85
2023/06/20 16:19:35;;;;;;;10.18;6.80;;;;;;;;;;4949992;29;20500;-83
2023/06/20 16:22:20;;;;;;;10.05;7.32;;;;;;;;;;4928917;29;20035;-85
2023/06/20 16:25:06;;;;;;;9.63;6.90;;;;;;;;;;4944180;29;20048;-84
2023/06/20 16:27:51;;;;;;;10.50;7.00;;;;;;;;;;4934902;29;20055;-84
2023/06/20 16:30:37;;;;;;;9.70;6.40;;;;;;;;;;4950108;29;20040;-84
2023/06/20 16:33:23;;;;;;;10.73;6.95;;;;;;;;;;4942374;29;20047;-85
2023/06/20 16:36:08;;;;;;;8.45;6.85;;;;;;;;;;4942234;29;20043;-85